Time;durP1;ratioP1;P1;durP2;ratioP2;P2;SDS_P1;SDS_P2;PMS_P1;PMS_P2;Temp;Humidity;BMP_temperature;BMP_pressure;BME280_temperature;BME280_humidity;BME280_pressure;Samples;Min_cycle;Max_cycle;Signal;HPM_P1;HPM_P2
2022/11/18 00:01:42;;;;;;;10.97;7.77;;;;;;;3.85;64.16;98986.19;4943339;28;97014;-95
2022/11/18 00:04:15;;;;;;;9.03;6.27;;;;;;;3.81;64.05;98973.31;4948297;28;96858;-95
2022/11/18 00:06:43;;;;;;;9.20;7.03;;;;;;;4.14;63.82;99000.09;4952749;28;97903;-95
2022/11/18 00:09:12;;;;;;;8.80;6.30;;;;;;;4.14;63.88;98996.66;4962435;28;101151;-95
2022/11/18 00:14:37;;;;;;;;;;;;;;;;;;;;;
2022/11/18 00:17:06;;;;;;;8.63;6.43;;;;;;;3.75;63.43;98948.41;4937509;28;101648;-95
2022/11/18 00:19:37;;;;;;;9.33;6.47;;;;;;;3.85;63.32;98965.41;4938757;28;99128;-93
2022/11/18 00:22:10;;;;;;;8.40;6.13;;;;;;;3.71;63.39;98964.94;4946907;28;96741;-96
2022/11/18 00:24:52;;;;;;;7.90;5.93;;;;;;;3.95;63.79;98986.75;4952764;28;97394;-95
2022/11/18 00:27:18;;;;;;;10.67;6.53;;;;;;;3.58;63.95;98980.00;4946976;28;98413;-95
2022/11/18 00:29:56;;;;;;;9.23;5.83;;;;;;;3.62;64.44;98996.34;4940009;28;126600;-94
2022/11/18 00:32:25;;;;;;;8.30;5.83;;;;;;;3.73;64.47;99002.09;4922856;28;96882;-95
2022/11/18 00:35:08;;;;;;;9.40;6.43;;;;;;;3.82;64.40;99001.84;4940223;28;97004;-96
2022/11/18 00:37:36;;;;;;;8.60;6.00;;;;;;;3.78;64.11;99002.84;4940175;28;101230;-94
2022/11/18 00:40:03;;;;;;;8.13;6.00;;;;;;;3.78;64.00;99007.16;4914829;28;100878;-94
2022/11/18 00:45:20;;;;;;;9.90;6.60;;;;;;;3.67;63.97;99004.88;4947106;28;96900;-94
2022/11/18 00:47:56;;;;;;;9.80;6.50;;;;;;;3.35;64.16;98954.69;4978495;28;100200;-94
2022/11/18 00:50:24;;;;;;;9.57;6.23;;;;;;;3.39;64.47;98952.84;4941762;28;101051;-93
2022/11/18 00:52:54;;;;;;;8.83;6.17;;;;;;;3.61;64.39;98971.28;4938940;28;97100;-94
2022/11/18 00:55:21;;;;;;;8.47;5.93;;;;;;;3.71;63.93;98972.72;4936153;28;97211;-94
2022/11/18 00:57:55;;;;;;;9.67;5.53;;;;;;;3.79;63.56;98973.38;4939666;28;99516;-94
2022/11/18 01:00:23;;;;;;;7.97;5.70;;;;;;;3.85;63.69;98995.72;4904580;28;100761;-94
2022/11/18 01:02:51;;;;;;;8.23;5.90;;;;;;;3.78;63.81;98988.97;4944870;28;97373;-94
2022/11/18 01:05:17;;;;;;;8.93;6.37;;;;;;;3.54;63.99;98949.81;4935926;28;96925;-95
2022/11/18 01:07:48;;;;;;;9.77;6.33;;;;;;;3.46;63.88;98963.91;4925340;28;101683;-95
2022/11/18 01:10:16;;;;;;;7.70;6.10;;;;;;;3.35;63.90;98957.25;4920791;28;101229;-94
2022/11/18 01:15:36;;;;;;;9.70;6.60;;;;;;;3.28;64.32;98945.34;4940648;28;96834;-94
2022/11/18 01:18:06;;;;;;;9.57;6.80;;;;;;;3.39;64.19;98948.50;4937531;28;97502;-96
2022/11/18 01:20:35;;;;;;;11.63;7.13;;;;;;;3.55;64.17;98981.81;4922530;28;99842;-93
2022/11/18 01:23:04;;;;;;;10.53;6.80;;;;;;;3.45;64.34;98952.69;4937857;28;96799;-94
2022/11/18 01:25:37;;;;;;;11.00;6.80;;;;;;;3.47;63.95;98948.31;4966792;28;96812;-94
2022/11/18 01:28:05;;;;;;;9.67;7.03;;;;;;;3.65;64.01;98978.09;4917275;28;101156;-94
2022/11/18 01:30:37;;;;;;;9.53;6.70;;;;;;;3.42;63.96;98960.53;4931900;28;101475;-93
2022/11/18 01:33:06;;;;;;;9.07;7.00;;;;;;;3.37;64.29;98960.69;4921953;28;96970;-94
2022/11/18 01:35:38;;;;;;;8.63;6.93;;;;;;;3.64;64.28;99007.53;4937968;28;97078;-93
2022/11/18 01:38:07;;;;;;;11.73;7.20;;;;;;;3.40;64.31;98963.19;4930616;28;101120;-95
2022/11/18 01:40:38;;;;;;;10.00;6.77;;;;;;;3.31;64.09;98934.03;4952897;28;99947;-95
2022/11/18 01:43:18;;;;;;;10.27;7.10;;;;;;;3.29;64.17;98956.59;4924463;28;96743;-94
2022/11/18 01:45:52;;;;;;;9.40;6.33;;;;;;;3.14;64.47;98930.16;4924645;28;97221;-94
2022/11/18 01:48:38;;;;;;;8.23;6.67;;;;;;;3.31;64.30;98958.22;4950538;28;99744;-94
2022/11/18 01:51:18;;;;;;;12.47;7.33;;;;;;;3.31;64.61;98954.78;4946767;28;101073;-94
2022/11/18 01:53:51;;;;;;;11.33;7.17;;;;;;;3.42;64.92;98988.22;4918419;28;97011;-94
2022/11/18 01:56:29;;;;;;;10.47;7.63;;;;;;;3.13;64.77;98966.47;4937988;28;96836;-94
2022/11/18 01:58:59;;;;;;;8.93;6.87;;;;;;;3.17;65.01;98975.88;4938671;28;101003;-94
2022/11/18 02:01:32;;;;;;;11.70;7.10;;;;;;;3.18;65.28;98969.81;4945586;28;100611;-95
2022/11/18 02:04:12;;;;;;;10.47;7.43;;;;;;;3.17;64.95;98968.97;4931856;28;97000;-94
2022/11/18 02:06:46;;;;;;;10.77;7.50;;;;;;;3.18;65.00;98983.63;4954701;28;96736;-94
2022/11/18 02:09:23;;;;;;;9.83;6.83;;;;;;;2.90;65.00;98931.59;4937665;28;100515;-94
2022/11/18 02:11:54;;;;;;;10.90;7.17;;;;;;;3.01;64.85;98936.53;4925580;28;100063;-94
2022/11/18 02:14:47;;;;;;;9.37;7.47;;;;;;;2.91;64.59;98914.34;4946939;28;97215;-94
2022/11/18 02:18:07;;;;;;;10.63;7.80;;;;;;;3.27;64.53;98953.16;4935779;28;97381;-94
2022/11/18 02:20:39;;;;;;;10.18;7.57;;;;;;;3.50;64.29;99002.72;4904172;28;100788;-95
2022/11/18 02:23:48;;;;;;;10.38;7.30;;;;;;;3.29;64.80;98975.59;4924534;28;100347;-94
2022/11/18 02:26:50;;;;;;;9.23;7.43;;;;;;;3.53;64.54;99010.41;4885427;28;97120;-94
2022/11/18 02:29:45;;;;;;;10.20;7.50;;;;;;;3.50;64.56;98991.47;4911840;28;96743;-95
2022/11/18 02:32:13;;;;;;;10.43;7.53;;;;;;;3.70;64.28;99011.72;4925652;28;101003;-94
2022/11/18 02:34:40;;;;;;;12.97;8.90;;;;;;;3.60;63.92;99004.16;4887392;28;100335;-96
2022/11/18 02:37:17;;;;;;;10.10;6.87;;;;;;;3.45;64.24;99001.13;4880945;28;97371;-94
2022/11/18 02:39:54;;;;;;;10.90;8.00;;;;;;;3.31;64.48;98985.91;4865999;28;97461;-95
2022/11/18 02:42:20;;;;;;;10.50;7.40;;;;;;;3.26;64.58;98973.06;4898680;28;101299;-96
2022/11/18 02:44:49;;;;;;;12.07;8.27;;;;;;;3.21;64.85;98980.13;4923997;28;101164;-96
2022/11/18 02:47:16;;;;;;;9.67;7.33;;;;;;;3.25;64.77;98988.66;4900926;28;97030;-95
2022/11/18 02:49:46;;;;;;;10.07;7.80;;;;;;;3.07;64.75;98949.34;4906623;28;96844;-96
2022/11/18 02:52:25;;;;;;;10.47;7.87;;;;;;;3.03;64.79;98931.31;4895294;28;101837;-96
2022/11/18 02:55:07;;;;;;;12.38;7.43;;;;;;;3.07;64.85;98938.97;4890256;28;98653;-93
2022/11/18 02:57:44;;;;;;;11.80;7.77;;;;;;;3.10;64.87;98941.47;4886304;28;116583;-94
2022/11/18 03:00:10;;;;;;;11.30;7.50;;;;;;;2.84;65.05;98913.63;4913219;28;97344;-94
2022/11/18 03:02:52;;;;;;;10.20;7.67;;;;;;;2.92;64.97;98929.00;4900979;28;98796;-93
2022/11/18 03:05:45;;;;;;;12.02;7.30;;;;;;;3.05;64.92;98963.22;4921845;28;100955;-95
2022/11/18 03:08:28;;;;;;;8.67;7.13;;;;;;;2.84;65.03;98916.22;4952796;28;96771;-96
2022/11/18 03:11:22;;;;;;;11.03;8.00;;;;;;;3.14;65.01;98975.94;4924156;28;96824;-96
2022/11/18 03:14:08;;;;;;;9.33;7.40;;;;;;;3.09;65.01;98957.09;4921228;28;99985;-94
2022/11/18 03:16:43;;;;;;;13.10;8.37;;;;;;;3.16;65.13;98969.84;4959464;28;100886;-94
2022/11/18 03:19:23;;;;;;;11.13;7.37;;;;;;;3.17;65.12;98962.91;4953226;28;96802;-94
2022/11/18 03:22:11;;;;;;;9.23;7.43;;;;;;;3.28;64.89;98968.69;4927876;28;97206;-93
2022/11/18 03:24:41;;;;;;;10.43;7.43;;;;;;;2.92;64.77;98900.47;4932799;28;101472;-94
2022/11/18 03:27:32;;;;;;;9.57;7.00;;;;;;;2.83;64.66;98901.56;4952749;28;99862;-94
2022/11/18 03:30:07;;;;;;;9.53;7.40;;;;;;;3.13;65.10;98927.59;4918036;28;96907;-94
2022/11/18 03:32:39;;;;;;;11.97;8.63;;;;;;;3.09;65.33;98913.84;4920014;28;97374;-93
2022/11/18 03:35:12;;;;;;;11.33;7.67;;;;;;;3.16;65.14;98928.34;4936725;28;100122;-95
2022/11/18 03:37:38;;;;;;;9.88;7.82;;;;;;;2.91;65.42;98884.09;4960454;28;99830;-95
2022/11/18 03:40:23;;;;;;;11.10;7.87;;;;;;;2.78;65.69;98890.44;4949495;28;96729;-93
2022/11/18 03:42:55;;;;;;;11.20;7.83;;;;;;;3.06;66.28;98933.84;4920926;28;97198;-93
2022/11/18 03:45:27;;;;;;;11.52;7.53;;;;;;;2.84;65.92;98897.22;4915080;28;99987;-95
2022/11/18 03:47:59;;;;;;;9.73;7.40;;;;;;;2.89;65.84;98897.97;4933005;28;100120;-95
2022/11/18 03:50:38;;;;;;;10.52;7.97;;;;;;;3.05;65.55;98925.19;4921155;28;97249;-94
2022/11/18 03:53:07;;;;;;;11.37;8.10;;;;;;;2.68;65.92;98895.03;4938984;28;98859;-94
2022/11/18 03:55:41;;;;;;;12.07;7.63;;;;;;;2.73;66.13;98894.88;4924184;28;101464;-94
2022/11/18 03:58:22;;;;;;;9.82;7.57;;;;;;;2.86;66.16;98916.19;4914325;28;100943;-94
2022/11/18 04:00:53;;;;;;;10.47;7.87;;;;;;;3.00;65.94;98918.44;4945965;28;96866;-96
2022/11/18 04:03:28;;;;;;;14.35;8.57;;;;;;;3.11;65.75;98963.94;4955621;28;97368;-94
2022/11/18 04:06:01;;;;;;;10.73;8.27;;;;;;;2.78;66.01;98899.97;4956454;28;101155;-95
2022/11/18 04:08:32;;;;;;;10.40;8.37;;;;;;;2.77;66.02;98896.53;4922348;28;101042;-94
2022/11/18 04:11:02;;;;;;;11.33;7.10;;;;;;;2.75;66.11;98897.47;4955769;28;96990;-94
2022/11/18 04:13:31;;;;;;;11.07;8.73;;;;;;;2.81;66.23;98889.53;4922731;28;97040;-95
2022/11/18 04:15:57;;;;;;;11.93;8.07;;;;;;;2.89;66.13;98923.88;4932383;28;98329;-94
2022/11/18 04:18:25;;;;;;;13.60;9.00;;;;;;;2.85;66.13;98933.50;4946011;28;101389;-93
2022/11/18 04:20:50;;;;;;;10.83;8.27;;;;;;;2.57;66.23;98868.53;4936208;28;96920;-93
2022/11/18 04:23:16;;;;;;;13.10;9.03;;;;;;;2.60;66.51;98884.00;4921394;28;97501;-94
2022/11/18 04:25:51;;;;;;;14.23;9.23;;;;;;;2.77;66.46;98887.91;4922252;28;101201;-93
2022/11/18 04:28:24;;;;;;;12.07;9.00;;;;;;;2.84;66.24;98887.69;4936138;28;100990;-95
2022/11/18 04:30:54;;;;;;;14.57;9.83;;;;;;;2.76;66.36;98876.66;4918518;28;97437;-94
2022/11/18 04:33:20;;;;;;;15.83;10.03;;;;;;;3.06;66.54;98916.53;4943481;28;96783;-94
2022/11/18 04:35:51;;;;;;;15.13;10.03;;;;;;;3.11;66.17;98926.75;4937272;28;100974;-94
2022/11/18 04:38:21;;;;;;;15.70;10.77;;;;;;;2.81;66.66;98881.75;4945693;28;101103;-94
2022/11/18 04:40:49;;;;;;;18.60;10.57;;;;;;;2.80;66.43;98885.25;4949082;28;97293;-94
2022/11/18 04:43:14;;;;;;;14.83;10.93;;;;;;;2.82;66.28;98891.22;4944377;28;97312;-95
2022/11/18 04:45:40;;;;;;;13.83;9.93;;;;;;;2.77;66.26;98887.91;4920413;28;100787;-94
2022/11/18 04:48:09;;;;;;;17.27;10.93;;;;;;;2.86;66.23;98932.59;4938040;28;100786;-93
2022/11/18 04:50:37;;;;;;;17.30;11.10;;;;;;;2.58;66.67;98903.06;4933325;28;97304;-94
2022/11/18 04:53:03;;;;;;;18.37;11.43;;;;;;;2.60;66.45;98885.75;4919433;28;96873;-93
2022/11/18 04:55:29;;;;;;;17.53;11.80;;;;;;;3.05;66.35;98968.41;4939042;28;101411;-93
2022/11/18 04:57:56;;;;;;;18.77;11.53;;;;;;;2.77;66.32;98903.47;4950937;28;101726;-93
2022/11/18 05:00:40;;;;;;;17.90;11.87;;;;;;;3.09;66.34;98963.13;4911949;28;96736;-95
2022/11/18 05:03:08;;;;;;;17.80;12.57;;;;;;;3.00;66.11;98950.41;4923249;28;97330;-94
2022/11/18 05:05:40;;;;;;;17.37;12.30;;;;;;;2.68;65.77;98902.78;4966871;28;101554;-93
2022/11/18 05:08:08;;;;;;;20.67;12.63;;;;;;;2.71;66.12;98912.25;4935331;28;98423;-93
2022/11/18 05:10:41;;;;;;;15.67;11.73;;;;;;;2.80;66.02;98947.44;4925688;28;96788;-94
2022/11/18 05:13:11;;;;;;;17.53;12.00;;;;;;;2.59;65.93;98925.47;4953696;28;96882;-94
2022/11/18 05:15:40;;;;;;;21.00;13.00;;;;;;;2.67;66.00;98926.97;4954755;28;101305;-95
2022/11/18 05:18:16;;;;;;;18.63;13.00;;;;;;;2.81;65.62;98954.31;4939536;28;101693;-96
2022/11/18 05:20:49;;;;;;;20.43;13.27;;;;;;;2.82;65.68;98975.03;4956607;28;97114;-94
2022/11/18 05:23:18;;;;;;;22.97;14.67;;;;;;;2.59;65.29;98926.34;4952770;28;96822;-95
2022/11/18 05:25:46;;;;;;;26.30;14.20;;;;;;;2.77;65.88;98981.22;4970161;28;100830;-93
2022/11/18 05:28:21;;;;;;;17.43;12.40;;;;;;;2.44;65.22;98939.63;4939856;28;100021;-95
2022/11/18 05:30:52;;;;;;;18.60;13.77;;;;;;;2.56;65.69;98980.81;4955193;28;97371;-94
2022/11/18 05:33:20;;;;;;;18.67;12.97;;;;;;;2.24;65.51;98938.38;4950910;28;97252;-95
2022/11/18 05:35:48;;;;;;;21.00;14.13;;;;;;;2.24;65.61;98943.53;4922411;28;99763;-95
2022/11/18 05:38:14;;;;;;;20.37;13.90;;;;;;;2.17;65.14;98951.47;4971332;28;100471;-94
2022/11/18 05:40:42;;;;;;;20.57;13.20;;;;;;;2.46;65.46;98998.28;4939790;28;96740;-95
2022/11/18 05:43:13;;;;;;;21.37;14.27;;;;;;;2.19;65.35;98950.56;4929678;28;97008;-95
2022/11/18 05:45:44;;;;;;;19.00;13.37;;;;;;;2.12;65.23;98964.50;4968611;28;99935;-96
2022/11/18 05:48:12;;;;;;;22.70;14.57;;;;;;;2.39;65.08;98996.72;4971370;28;100272;-94
2022/11/18 05:50:38;;;;;;;19.37;13.93;;;;;;;2.43;65.00;99003.53;4924570;28;97046;-94
2022/11/18 05:53:11;;;;;;;22.77;12.97;;;;;;;2.44;65.09;98996.63;4949856;28;97058;-92
2022/11/18 05:56:11;;;;;;;16.73;11.90;;;;;;;2.56;64.65;99022.28;4937875;28;101260;-94
2022/11/18 05:58:36;;;;;;;20.43;13.40;;;;;;;2.69;64.63;99033.22;4913948;28;100810;-94
2022/11/18 06:01:03;;;;;;;18.87;13.20;;;;;;;2.64;64.17;99042.81;4947311;28;96807;-95
2022/11/18 06:03:33;;;;;;;21.07;13.77;;;;;;;2.39;64.67;99020.03;4918113;28;96840;-93
2022/11/18 06:06:01;;;;;;;20.47;13.73;;;;;;;2.31;64.36;99014.16;4939557;28;103751;-94
2022/11/18 06:08:30;;;;;;;19.07;12.90;;;;;;;2.50;64.19;99032.75;4937808;28;99949;-93
2022/11/18 06:10:56;;;;;;;19.87;12.47;;;;;;;2.38;64.07;98997.59;4956104;28;97047;-93
2022/11/18 06:13:27;;;;;;;19.63;12.43;;;;;;;2.69;64.35;99048.75;4918365;28;96897;-95
2022/11/18 06:16:02;;;;;;;16.97;11.80;;;;;;;2.40;64.13;98995.84;4945180;28;100816;-95
2022/11/18 06:18:30;;;;;;;19.87;12.77;;;;;;;2.44;63.13;98996.63;4917105;28;100864;-96
2022/11/18 06:21:02;;;;;;;17.60;11.40;;;;;;;2.81;62.70;99066.63;4947903;28;97277;-93
2022/11/18 06:23:34;;;;;;;20.55;12.73;;;;;;;2.67;62.77;99050.50;4921126;28;96755;-95
2022/11/18 06:25:59;;;;;;;16.80;12.07;;;;;;;2.61;62.70;99054.09;4917277;28;99834;-92
2022/11/18 06:28:29;;;;;;;19.07;12.90;;;;;;;2.30;62.65;99029.72;4937131;28;101004;-94
2022/11/18 06:30:54;;;;;;;19.47;12.30;;;;;;;2.44;62.69;99062.25;4937840;28;96676;-94
2022/11/18 06:33:20;;;;;;;19.73;13.67;;;;;;;2.44;62.69;99045.84;4920977;28;97155;-93
2022/11/18 06:35:47;;;;;;;19.90;12.33;;;;;;;2.52;62.51;99079.34;4935915;28;98496;-93
2022/11/18 06:38:13;;;;;;;21.43;13.93;;;;;;;2.56;63.03;99088.75;4962993;28;99706;-93
2022/11/18 06:40:39;;;;;;;20.57;13.87;;;;;;;2.53;63.06;99066.38;4936558;28;97204;-93
2022/11/18 06:48:34;;;;;;;23.57;13.27;;;;;;;2.57;62.21;99090.47;4966250;28;99813;-93
2022/11/18 06:51:04;;;;;;;22.43;13.77;;;;;;;2.49;62.53;99090.63;4922014;28;97299;-91
2022/11/18 06:53:32;;;;;;;18.70;13.47;;;;;;;2.51;62.63;99088.03;4939036;28;97529;-95
2022/11/18 06:56:11;;;;;;;23.23;14.83;;;;;;;2.44;62.75;99092.47;4950503;28;100544;-96
2022/11/18 06:58:38;;;;;;;22.13;14.60;;;;;;;2.46;62.58;99081.19;4964975;28;100647;-95
2022/11/18 07:01:15;;;;;;;17.73;14.00;;;;;;;2.60;62.54;99098.19;4922763;28;96747;-96
2022/11/18 07:03:42;;;;;;;21.23;14.13;;;;;;;2.48;62.14;99082.00;4954370;28;97086;-96
2022/11/18 07:06:08;;;;;;;23.13;14.77;;;;;;;2.57;62.40;99104.28;4925449;28;100917;-94
2022/11/18 07:09:04;;;;;;;22.73;14.53;;;;;;;2.38;62.33;99082.22;4951662;28;100451;-96
2022/11/18 07:11:53;;;;;;;;;;;;;;;;;;;;;
2022/11/18 07:14:54;;;;;;;;;;;;;;;;;;;;;
2022/11/18 07:21:59;;;;;;;23.43;15.60;;;;;;;1.96;62.14;99057.16;4955441;28;95900;-95
2022/11/18 07:25:12;;;;;;;;;;;;;;;;;;;;;
2022/11/18 07:27:47;;;;;;;22.75;17.20;;;;;;;2.21;62.17;99080.84;4877332;29;96797;-95
2022/11/18 07:30:27;;;;;;;23.17;17.40;;;;;;;2.04;62.45;99051.84;4844748;29;98986;-94
2022/11/18 07:33:13;;;;;;;25.00;17.90;;;;;;;1.90;62.10;99044.34;4828453;29;100178;-96
2022/11/18 07:35:40;;;;;;;24.10;17.30;;;;;;;2.23;62.22;99094.59;4863921;29;96681;-95
2022/11/18 07:38:16;;;;;;;23.93;17.80;;;;;;;2.09;62.01;99083.66;4881095;28;97027;-95
2022/11/18 07:40:41;;;;;;;23.10;18.17;;;;;;;2.20;61.83;99099.00;4861319;28;99371;-91
2022/11/18 07:43:07;;;;;;;26.43;17.43;;;;;;;2.16;63.62;99079.22;4862047;28;99805;-94
2022/11/18 07:45:35;;;;;;;25.17;17.13;;;;;;;2.18;62.06;99086.09;4832026;28;97268;-91
2022/11/18 07:48:01;;;;;;;23.73;16.10;;;;;;;2.17;61.49;99099.06;4858180;28;97374;-91
2022/11/18 07:50:26;;;;;;;25.40;16.53;;;;;;;1.97;61.88;99076.97;4821417;29;100627;-90
2022/11/18 07:52:54;;;;;;;24.73;16.60;;;;;;;2.09;61.71;99104.38;4855250;29;101209;-89
2022/11/18 07:55:20;;;;;;;23.27;16.23;;;;;;;2.18;62.09;99104.22;4825366;29;97583;-93
2022/11/18 07:57:45;;;;;;;27.27;16.97;;;;;;;2.30;61.56;99094.47;4855145;28;97633;-90
2022/11/18 08:00:11;;;;;;;21.93;15.90;;;;;;;2.37;61.58;99099.50;4852383;28;99997;-87
2022/11/18 08:02:42;;;;;;;21.63;15.30;;;;;;;2.24;60.92;99110.97;4943156;28;98419;-90
2022/11/18 08:05:07;;;;;;;22.43;15.40;;;;;;;2.30;61.42;99104.84;4973840;28;96805;-90
2022/11/18 08:07:33;;;;;;;21.50;16.03;;;;;;;2.32;61.47;99106.50;4919481;28;97484;-90
2022/11/18 08:09:58;;;;;;;21.13;16.00;;;;;;;2.08;61.39;99105.25;4929897;28;99672;-90
2022/11/18 08:12:24;;;;;;;18.80;14.90;;;;;;;2.03;61.44;99107.91;4960780;28;97931;-90
2022/11/18 08:14:49;;;;;;;21.73;15.73;;;;;;;2.02;60.82;99110.56;4936709;28;97243;-86
2022/11/18 08:17:15;;;;;;;22.13;15.70;;;;;;;2.04;60.66;99108.78;4951500;28;97050;-87
2022/11/18 08:19:40;;;;;;;20.60;15.60;;;;;;;1.90;60.59;99103.03;4956175;28;101130;-89
2022/11/18 08:22:06;;;;;;;23.13;16.47;;;;;;;2.00;60.82;99126.09;4952675;28;101391;-90
2022/11/18 08:24:31;;;;;;;25.10;17.73;;;;;;;1.74;60.35;99099.84;4936911;28;96980;-87
2022/11/18 08:26:57;;;;;;;24.13;17.10;;;;;;;1.77;60.51;99117.91;4936504;28;97132;-88
2022/11/18 08:29:22;;;;;;;26.93;17.93;;;;;;;1.86;60.12;99120.31;4936666;28;100834;-89
2022/11/18 08:31:47;;;;;;;26.37;18.30;;;;;;;1.88;60.56;99125.47;4935715;28;100494;-86
2022/11/18 08:34:13;;;;;;;27.80;17.57;;;;;;;1.96;60.31;99121.88;4951236;28;97532;-87
2022/11/18 08:36:39;;;;;;;23.07;17.90;;;;;;;1.93;59.96;99123.66;4941906;28;97223;-86
2022/11/18 08:39:07;;;;;;;21.83;16.67;;;;;;;1.70;59.87;99093.03;4969073;28;102098;-86
2022/11/18 08:41:35;;;;;;;25.60;17.30;;;;;;;1.98;59.52;99116.69;4920497;28;101297;-85
2022/11/18 08:44:02;;;;;;;23.23;16.90;;;;;;;1.83;58.78;99110.03;4920734;28;97017;-87
2022/11/18 08:46:28;;;;;;;26.10;17.67;;;;;;;1.81;59.89;99123.00;4953273;28;98784;-87
2022/11/18 08:48:54;;;;;;;22.07;16.40;;;;;;;1.79;59.37;99123.91;4923683;28;101862;-90
2022/11/18 08:51:19;;;;;;;24.30;16.83;;;;;;;1.83;58.97;99150.56;4918169;28;101404;-91
2022/11/18 08:53:45;;;;;;;22.63;16.37;;;;;;;1.58;59.27;99109.59;4951599;28;97254;-87
2022/11/18 08:56:15;;;;;;;22.23;17.40;;;;;;;1.71;59.28;99136.97;4940828;28;96705;-87
2022/11/18 08:58:41;;;;;;;21.27;16.73;;;;;;;1.75;59.16;99145.56;4945779;28;98275;-88
2022/11/18 09:01:07;;;;;;;27.10;17.77;;;;;;;1.89;58.81;99148.75;4946743;28;101032;-87
2022/11/18 09:03:33;;;;;;;26.40;17.53;;;;;;;2.03;59.38;99158.84;4925039;28;96834;-92
2022/11/18 09:06:23;;;;;;;23.77;17.83;;;;;;;2.00;58.43;99166.66;4955566;28;96743;-93
2022/11/18 09:08:49;;;;;;;26.97;18.87;;;;;;;1.88;58.76;99143.59;4935322;28;100989;-93
2022/11/18 09:11:20;;;;;;;22.57;17.80;;;;;;;2.03;58.12;99164.88;4972144;28;99403;-94
2022/11/18 09:13:46;;;;;;;24.73;18.63;;;;;;;1.96;57.86;99165.03;4947250;28;97218;-93
2022/11/18 09:16:12;;;;;;;25.67;17.97;;;;;;;1.62;58.47;99120.75;4953410;28;96828;-92
2022/11/18 09:18:37;;;;;;;24.17;18.10;;;;;;;1.91;58.47;99152.16;4951896;28;100372;-91
2022/11/18 09:21:06;;;;;;;26.17;17.50;;;;;;;1.73;58.06;99113.66;4962994;28;97109;-91
2022/11/18 09:23:33;;;;;;;26.97;19.37;;;;;;;1.91;58.33;99166.84;4942747;28;97099;-93
2022/11/18 09:26:11;;;;;;;25.53;18.27;;;;;;;1.93;58.44;99134.88;4966893;28;96849;-94
2022/11/18 09:28:37;;;;;;;28.30;20.63;;;;;;;2.01;58.04;99152.88;4942669;28;99760;-94
2022/11/18 09:31:13;;;;;;;26.50;19.57;;;;;;;2.14;58.10;99181.97;5027525;22;100620;-93
2022/11/18 09:33:39;;;;;;;26.20;18.43;;;;;;;1.84;57.56;99141.94;4940704;28;96781;-95
2022/11/18 09:36:12;;;;;;;24.83;17.97;;;;;;;2.15;57.73;99187.13;4938721;28;96897;-91
2022/11/18 09:38:37;;;;;;;23.80;18.30;;;;;;;2.10;57.79;99181.16;4916737;28;99799;-96
2022/11/18 09:41:14;;;;;;;24.47;17.93;;;;;;;2.10;56.98;99185.50;4919862;28;98858;-95
2022/11/18 09:44:07;;;;;;;22.83;17.53;;;;;;;2.01;57.00;99184.78;4941189;28;97547;-95
2022/11/18 09:46:36;;;;;;;27.03;18.50;;;;;;;1.99;57.27;99178.75;4951972;28;97447;-93
2022/11/18 09:49:13;;;;;;;30.30;19.03;;;;;;;1.90;57.58;99158.22;4936963;28;99726;-86
2022/11/18 09:51:41;;;;;;;23.70;17.73;;;;;;;1.94;57.14;99165.03;4920152;28;101909;-94
2022/11/18 09:54:20;;;;;;;24.83;18.27;;;;;;;1.96;58.33;99183.16;4949383;28;96779;-93
2022/11/18 09:56:47;;;;;;;28.77;18.83;;;;;;;1.79;57.37;99178.25;4954748;28;96806;-93
2022/11/18 09:59:14;;;;;;;21.87;16.47;;;;;;;1.75;57.70;99176.59;4938352;28;98243;-93
2022/11/18 10:01:40;;;;;;;26.27;17.93;;;;;;;1.71;57.79;99177.50;4961517;28;99285;-93
2022/11/18 10:04:15;;;;;;;23.67;17.33;;;;;;;1.64;58.07;99187.09;4948942;28;97073;-92
2022/11/18 10:06:41;;;;;;;20.97;16.37;;;;;;;1.69;57.63;99187.06;4935770;28;97230;-91
2022/11/18 10:09:12;;;;;;;21.73;16.37;;;;;;;1.53;58.04;99182.09;4924376;28;101651;-91
2022/11/18 10:11:43;;;;;;;25.17;17.83;;;;;;;1.69;57.84;99187.91;4951538;28;98140;-93
2022/11/18 10:14:25;;;;;;;22.85;17.13;;;;;;;1.78;57.71;99179.97;4935642;28;97284;-91
2022/11/18 10:17:03;;;;;;;23.60;17.45;;;;;;;1.84;57.11;99185.94;4938055;28;97699;-93
2022/11/18 10:19:34;;;;;;;25.40;17.47;;;;;;;1.78;57.25;99177.41;4934081;28;101503;-92
2022/11/18 10:22:13;;;;;;;25.07;16.30;;;;;;;1.76;57.13;99175.72;4944934;28;101805;-91
2022/11/18 10:24:41;;;;;;;24.37;16.03;;;;;;;1.76;56.84;99196.41;4942207;28;96647;-95
2022/11/18 10:27:13;;;;;;;20.33;15.20;;;;;;;1.85;56.86;99190.22;4959241;28;96756;-89
2022/11/18 10:29:38;;;;;;;20.67;14.87;;;;;;;1.78;56.30;99177.41;4944471;28;101264;-94
2022/11/18 10:32:05;;;;;;;21.60;14.43;;;;;;;1.58;56.18;99153.59;4957156;28;98009;-96
2022/11/18 10:34:33;;;;;;;21.90;16.00;;;;;;;1.51;56.73;99170.94;4950612;28;96764;-95
2022/11/18 10:37:23;;;;;;;26.93;16.50;;;;;;;1.45;56.53;99189.13;4942389;28;96946;-95
2022/11/18 10:39:51;;;;;;;19.50;14.03;;;;;;;1.39;56.54;99202.13;4934924;28;100751;-94
2022/11/18 10:42:40;;;;;;;16.57;12.97;;;;;;;1.43;55.98;99201.22;4919220;28;101822;-92
2022/11/18 10:45:23;;;;;;;20.60;14.77;;;;;;;1.54;56.80;99188.13;4937589;28;96695;-95
2022/11/18 10:48:18;;;;;;;21.23;15.00;;;;;;;1.52;55.80;99190.75;4944771;28;97282;-85
2022/11/18 10:50:52;;;;;;;21.90;15.00;;;;;;;1.70;56.43;99202.53;4916353;28;99498;-85
2022/11/18 10:53:31;;;;;;;22.37;14.83;;;;;;;1.58;56.39;99210.50;4915365;28;101497;-84
2022/11/18 10:55:59;;;;;;;19.43;14.37;;;;;;;1.55;56.10;99210.53;4931726;28;96832;-86
2022/11/18 10:58:25;;;;;;;19.70;14.33;;;;;;;1.51;56.41;99193.34;4915162;28;97391;-85
2022/11/18 11:00:50;;;;;;;21.43;14.63;;;;;;;1.52;56.33;99211.44;4932810;28;101731;-86
2022/11/18 11:03:42;;;;;;;19.70;13.93;;;;;;;1.41;56.56;99212.47;4934427;28;101433;-87
2022/11/18 11:06:29;;;;;;;21.23;14.52;;;;;;;1.46;56.99;99218.44;4933899;28;97163;-87
2022/11/18 11:09:01;;;;;;;20.40;14.77;;;;;;;1.45;56.30;99207.22;4934525;28;97799;-86
2022/11/18 11:11:58;;;;;;;20.83;14.33;;;;;;;1.54;56.05;99214.88;4928167;28;101717;-86
2022/11/18 11:14:26;;;;;;;20.27;14.13;;;;;;;1.50;56.17;99212.34;4942047;28;98060;-86
2022/11/18 11:17:03;;;;;;;21.43;14.77;;;;;;;1.57;56.20;99207.06;4933086;28;98143;-86
2022/11/18 11:19:40;;;;;;;22.03;15.93;;;;;;;1.70;56.13;99212.88;4919720;28;97248;-86
2022/11/18 11:22:10;;;;;;;21.60;15.00;;;;;;;1.69;55.63;99212.94;4934509;28;98352;-85
2022/11/18 11:24:36;;;;;;;23.83;15.87;;;;;;;1.62;55.79;99212.16;4942096;28;101420;-93
2022/11/18 11:27:23;;;;;;;20.20;14.17;;;;;;;1.51;55.29;99203.69;4909979;28;97246;-91
2022/11/18 11:29:56;;;;;;;20.50;15.17;;;;;;;1.67;55.77;99223.28;4933776;28;97447;-91
2022/11/18 11:32:49;;;;;;;24.87;16.53;;;;;;;1.69;55.68;99213.78;4932411;28;101578;-90
2022/11/18 11:35:21;;;;;;;;;;;;;;;1.83;56.00;99225.63;4947334;28;101489;-91
2022/11/18 11:37:59;;;;;;;22.75;14.52;;;;;;;1.75;55.17;99220.59;4933145;28;96916;-89
2022/11/18 11:40:39;;;;;;;23.50;16.07;;;;;;;1.58;55.75;99206.16;4919419;28;97378;-88
2022/11/18 11:43:26;;;;;;;22.53;15.57;;;;;;;1.58;55.46;99213.94;4951233;28;98398;-89
2022/11/18 11:46:14;;;;;;;26.57;15.50;;;;;;;1.62;56.11;99211.28;4939068;28;100228;-88
2022/11/18 11:48:58;;;;;;;24.30;16.97;;;;;;;1.57;59.82;99203.59;4935025;28;97389;-77
2022/11/18 11:51:50;;;;;;;26.83;16.50;;;;;;;1.84;56.84;99219.59;4935768;28;97358;-87
2022/11/18 11:54:22;;;;;;;26.25;16.65;;;;;;;1.82;56.45;99219.59;4929711;28;98147;-88
2022/11/18 11:56:52;;;;;;;26.45;16.98;;;;;;;1.59;55.93;99217.38;4942063;28;98038;-88
2022/11/18 11:59:36;;;;;;;24.63;16.70;;;;;;;1.55;57.03;99206.22;4919441;28;96788;-84
2022/11/18 12:02:19;;;;;;;27.10;17.47;;;;;;;1.62;56.77;99213.88;4949218;28;96916;-81
2022/11/18 12:04:52;;;;;;;29.30;16.77;;;;;;;1.55;56.84;99205.38;4927620;28;101701;-81
2022/11/18 12:07:25;;;;;;;26.03;16.93;;;;;;;1.47;57.13;99196.88;4928473;28;97492;-81
2022/11/18 12:10:20;;;;;;;27.20;18.03;;;;;;;1.58;57.57;99215.66;4938520;28;97323;-81
2022/11/18 12:12:57;;;;;;;26.83;17.67;;;;;;;1.52;57.39;99192.47;4917803;28;97440;-82
2022/11/18 12:15:29;;;;;;;32.57;18.70;;;;;;;1.65;57.29;99214.69;4933287;28;101448;-81
2022/11/18 12:18:00;;;;;;;26.67;17.88;;;;;;;1.64;57.63;99207.81;4933833;28;101272;-81